sensor_id;sensor_type;location;lat;lon;timestamp;pressure;altitude;pressure_sealevel;temperature;humidity
15489;BME280;7846;48.830;9.116;2023-02-19T00:00:59;98404.72;;;12.68;79.89
15489;BME280;7846;48.830;9.116;2023-02-19T00:03:26;98397.50;;;12.78;79.75
15489;BME280;7846;48.830;9.116;2023-02-19T00:05:51;98390.88;;;12.74;79.89
15489;BME280;7846;48.830;9.116;2023-02-19T00:08:16;98387.38;;;12.66;80.56
15489;BME280;7846;48.830;9.116;2023-02-19T00:10:44;98388.38;;;12.65;81.19
15489;BME280;7846;48.830;9.116;2023-02-19T00:13:10;98380.44;;;12.65;80.79
15489;BME280;7846;48.830;9.116;2023-02-19T00:15:39;98381.75;;;12.95;79.64
15489;BME280;7846;48.830;9.116;2023-02-19T00:18:04;98376.84;;;12.74;80.16
15489;BME280;7846;48.830;9.116;2023-02-19T00:20:29;98384.59;;;12.75;79.54
15489;BME280;7846;48.830;9.116;2023-02-19T00:22:55;98381.97;;;12.75;79.38
15489;BME280;7846;48.830;9.116;2023-02-19T00:25:20;98383.13;;;12.73;79.68
15489;BME280;7846;48.830;9.116;2023-02-19T00:27:45;98379.31;;;12.75;80.01
15489;BME280;7846;48.830;9.116;2023-02-19T00:30:12;98382.66;;;12.77;79.55
15489;BME280;7846;48.830;9.116;2023-02-19T00:32:37;98381.00;;;12.76;79.55
15489;BME280;7846;48.830;9.116;2023-02-19T00:35:03;98384.28;;;12.78;79.27
15489;BME280;7846;48.830;9.116;2023-02-19T00:37:28;98385.59;;;12.74;79.72
15489;BME280;7846;48.830;9.116;2023-02-19T00:39:53;98387.84;;;12.61;80.85
15489;BME280;7846;48.830;9.116;2023-02-19T00:42:19;98389.75;;;12.77;79.65
15489;BME280;7846;48.830;9.116;2023-02-19T00:44:45;98394.81;;;12.70;80.03
15489;BME280;7846;48.830;9.116;2023-02-19T00:47:10;98386.41;;;12.75;79.74
15489;BME280;7846;48.830;9.116;2023-02-19T00:49:35;98384.88;;;13.32;78.00
15489;BME280;7846;48.830;9.116;2023-02-19T00:52:02;98394.50;;;12.73;79.36
15489;BME280;7846;48.830;9.116;2023-02-19T00:54:28;98381.28;;;13.42;76.62
15489;BME280;7846;48.830;9.116;2023-02-19T00:56:55;98381.13;;;13.51;76.41
15489;BME280;7846;48.830;9.116;2023-02-19T00:59:20;98365.25;;;13.43;76.37
15489;BME280;7846;48.830;9.116;2023-02-19T01:01:47;98366.41;;;13.57;75.94
15489;BME280;7846;48.830;9.116;2023-02-19T01:04:13;98362.63;;;13.43;76.17
15489;BME280;7846;48.830;9.116;2023-02-19T01:06:40;98362.81;;;13.66;75.80
15489;BME280;7846;48.830;9.116;2023-02-19T01:09:05;98352.41;;;13.65;75.55
15489;BME280;7846;48.830;9.116;2023-02-19T01:11:31;98357.75;;;12.80;77.87
15489;BME280;7846;48.830;9.116;2023-02-19T01:13:58;98354.31;;;12.88;79.23
15489;BME280;7846;48.830;9.116;2023-02-19T01:16:25;98359.25;;;12.56;80.03
15489;BME280;7846;48.830;9.116;2023-02-19T01:18:52;98357.84;;;12.70;80.12
15489;BME280;7846;48.830;9.116;2023-02-19T01:21:24;98354.31;;;12.88;79.21
15489;BME280;7846;48.830;9.116;2023-02-19T01:23:50;98355.53;;;12.41;80.32
15489;BME280;7846;48.830;9.116;2023-02-19T01:26:18;98350.81;;;12.53;79.71
15489;BME280;7846;48.830;9.116;2023-02-19T01:28:44;98347.03;;;12.55;78.68
15489;BME280;7846;48.830;9.116;2023-02-19T01:31:12;98344.97;;;12.75;78.39
15489;BME280;7846;48.830;9.116;2023-02-19T01:33:38;98345.88;;;12.50;78.09
15489;BME280;7846;48.830;9.116;2023-02-19T01:36:05;98337.28;;;12.56;77.17
15489;BME280;7846;48.830;9.116;2023-02-19T01:38:32;98339.19;;;12.72;76.43
15489;BME280;7846;48.830;9.116;2023-02-19T01:41:00;98337.97;;;12.92;75.89
15489;BME280;7846;48.830;9.116;2023-02-19T01:43:26;98341.03;;;13.22;75.02
15489;BME280;7846;48.830;9.116;2023-02-19T01:45:51;98341.66;;;13.58;73.13
15489;BME280;7846;48.830;9.116;2023-02-19T01:48:24;98342.28;;;13.44;73.22
15489;BME280;7846;48.830;9.116;2023-02-19T01:50:56;98339.00;;;13.66;72.98
15489;BME280;7846;48.830;9.116;2023-02-19T01:53:25;98342.34;;;13.18;74.39
15489;BME280;7846;48.830;9.116;2023-02-19T01:55:55;98341.22;;;13.20;74.56
15489;BME280;7846;48.830;9.116;2023-02-19T01:58:24;98339.63;;;13.01;75.51
15489;BME280;7846;48.830;9.116;2023-02-19T02:00:50;98327.13;;;12.69;75.95
15489;BME280;7846;48.830;9.116;2023-02-19T02:03:16;98331.59;;;12.69;77.12
15489;BME280;7846;48.830;9.116;2023-02-19T02:05:52;98344.84;;;12.77;77.49
15489;BME280;7846;48.830;9.116;2023-02-19T02:08:21;98353.13;;;12.56;78.46
15489;BME280;7846;48.830;9.116;2023-02-19T02:11:04;98356.59;;;12.56;79.13
15489;BME280;7846;48.830;9.116;2023-02-19T02:13:32;98350.13;;;12.43;81.02
15489;BME280;7846;48.830;9.116;2023-02-19T02:16:16;98346.53;;;12.52;81.16
15489;BME280;7846;48.830;9.116;2023-02-19T02:18:57;98349.13;;;12.44;82.72
15489;BME280;7846;48.830;9.116;2023-02-19T02:21:52;98342.44;;;12.31;83.47
15489;BME280;7846;48.830;9.116;2023-02-19T02:32:20;98305.75;;;12.46;83.92
15489;BME280;7846;48.830;9.116;2023-02-19T02:34:56;98296.97;;;12.80;82.33
15489;BME280;7846;48.830;9.116;2023-02-19T02:37:26;98312.44;;;12.67;81.94
15489;BME280;7846;48.830;9.116;2023-02-19T02:39:56;98297.94;;;12.79;82.26
15489;BME280;7846;48.830;9.116;2023-02-19T02:42:23;98293.75;;;12.60;82.24
15489;BME280;7846;48.830;9.116;2023-02-19T02:44:51;98300.13;;;12.83;81.67
15489;BME280;7846;48.830;9.116;2023-02-19T02:47:40;98309.69;;;12.76;81.45
15489;BME280;7846;48.830;9.116;2023-02-19T02:50:08;98304.25;;;12.86;80.84
15489;BME280;7846;48.830;9.116;2023-02-19T02:52:37;98309.53;;;12.86;80.79
15489;BME280;7846;48.830;9.116;2023-02-19T02:55:24;98298.16;;;12.94;80.32
15489;BME280;7846;48.830;9.116;2023-02-19T02:57:53;98314.66;;;12.79;80.77
15489;BME280;7846;48.830;9.116;2023-02-19T03:00:21;98302.94;;;12.90;80.61
15489;BME280;7846;48.830;9.116;2023-02-19T03:02:48;98303.09;;;12.80;80.60
15489;BME280;7846;48.830;9.116;2023-02-19T03:05:22;98296.50;;;12.84;81.05
15489;BME280;7846;48.830;9.116;2023-02-19T03:10:46;98300.28;;;12.82;81.62
15489;BME280;7846;48.830;9.116;2023-02-19T03:13:22;98296.59;;;12.67;82.59
15489;BME280;7846;48.830;9.116;2023-02-19T03:16:16;98294.56;;;12.60;82.54
15489;BME280;7846;48.830;9.116;2023-02-19T03:19:03;98291.97;;;12.69;82.79
15489;BME280;7846;48.830;9.116;2023-02-19T03:22:00;98301.00;;;12.58;83.13
15489;BME280;7846;48.830;9.116;2023-02-19T03:24:36;98298.41;;;12.32;84.47
15489;BME280;7846;48.830;9.116;2023-02-19T03:27:25;98285.53;;;12.37;84.02
15489;BME280;7846;48.830;9.116;2023-02-19T03:29:54;98294.53;;;12.52;83.47
15489;BME280;7846;48.830;9.116;2023-02-19T03:32:25;98289.94;;;12.54;85.00
15489;BME280;7846;48.830;9.116;2023-02-19T03:34:56;98279.41;;;12.28;84.84
15489;BME280;7846;48.830;9.116;2023-02-19T03:37:29;98287.25;;;12.46;84.22
15489;BME280;7846;48.830;9.116;2023-02-19T03:39:56;98291.75;;;12.54;83.60
15489;BME280;7846;48.830;9.116;2023-02-19T03:47:44;98283.88;;;12.70;83.58
15489;BME280;7846;48.830;9.116;2023-02-19T03:50:19;98281.06;;;12.29;84.36
15489;BME280;7846;48.830;9.116;2023-02-19T03:53:00;98293.59;;;12.62;83.18
15489;BME280;7846;48.830;9.116;2023-02-19T03:55:44;98300.00;;;12.59;82.75
15489;BME280;7846;48.830;9.116;2023-02-19T03:58:17;98293.66;;;12.44;83.73
15489;BME280;7846;48.830;9.116;2023-02-19T04:00:55;98295.00;;;12.82;81.82
15489;BME280;7846;48.830;9.116;2023-02-19T04:03:36;98300.63;;;12.53;82.86
15489;BME280;7846;48.830;9.116;2023-02-19T04:06:09;98300.13;;;12.83;81.56
15489;BME280;7846;48.830;9.116;2023-02-19T04:08:38;98310.69;;;12.83;81.47
15489;BME280;7846;48.830;9.116;2023-02-19T04:11:05;98314.56;;;12.63;81.50
15489;BME280;7846;48.830;9.116;2023-02-19T04:13:40;98311.94;;;13.05;80.40
15489;BME280;7846;48.830;9.116;2023-02-19T04:16:12;98309.41;;;12.96;80.13
15489;BME280;7846;48.830;9.116;2023-02-19T04:18:40;98318.28;;;12.52;81.24
15489;BME280;7846;48.830;9.116;2023-02-19T04:21:08;98324.47;;;12.61;81.01
15489;BME280;7846;48.830;9.116;2023-02-19T04:23:38;98316.31;;;12.46;81.35
15489;BME280;7846;48.830;9.116;2023-02-19T04:26:05;98316.72;;;12.68;80.41
15489;BME280;7846;48.830;9.116;2023-02-19T04:28:32;98323.63;;;12.60;80.52
15489;BME280;7846;48.830;9.116;2023-02-19T04:30:58;98321.38;;;12.40;80.72
15489;BME280;7846;48.830;9.116;2023-02-19T04:33:23;98326.72;;;12.56;80.12
15489;BME280;7846;48.830;9.116;2023-02-19T04:35:48;98335.97;;;12.52;79.66
15489;BME280;7846;48.830;9.116;2023-02-19T04:38:14;98339.47;;;12.34;79.51
15489;BME280;7846;48.830;9.116;2023-02-19T04:40:39;98337.53;;;12.37;79.00
15489;BME280;7846;48.830;9.116;2023-02-19T04:43:05;98333.50;;;12.24;79.22
15489;BME280;7846;48.830;9.116;2023-02-19T04:45:31;98343.31;;;12.14;78.92
15489;BME280;7846;48.830;9.116;2023-02-19T04:47:57;98342.03;;;12.44;77.93
15489;BME280;7846;48.830;9.116;2023-02-19T04:50:23;98348.78;;;12.39;77.51
15489;BME280;7846;48.830;9.116;2023-02-19T04:52:48;98351.00;;;12.07;78.01
15489;BME280;7846;48.830;9.116;2023-02-19T04:55:14;98346.56;;;12.08;77.84
15489;BME280;7846;48.830;9.116;2023-02-19T04:57:39;98362.41;;;12.34;77.29
15489;BME280;7846;48.830;9.116;2023-02-19T05:00:05;98360.94;;;12.31;77.07
15489;BME280;7846;48.830;9.116;2023-02-19T05:02:32;98359.22;;;12.04;77.41
15489;BME280;7846;48.830;9.116;2023-02-19T05:04:57;98361.94;;;12.13;77.23
15489;BME280;7846;48.830;9.116;2023-02-19T05:07:22;98353.19;;;12.38;77.02
15489;BME280;7846;48.830;9.116;2023-02-19T05:09:48;98358.94;;;12.07;76.93
15489;BME280;7846;48.830;9.116;2023-02-19T05:12:13;98363.56;;;12.31;76.08
15489;BME280;7846;48.830;9.116;2023-02-19T05:14:38;98367.16;;;12.30;75.57
15489;BME280;7846;48.830;9.116;2023-02-19T05:17:05;98374.47;;;12.37;75.97
15489;BME280;7846;48.830;9.116;2023-02-19T05:19:31;98378.81;;;12.46;74.72
15489;BME280;7846;48.830;9.116;2023-02-19T05:21:57;98370.16;;;12.53;74.72
15489;BME280;7846;48.830;9.116;2023-02-19T05:24:22;98379.81;;;12.45;74.43
15489;BME280;7846;48.830;9.116;2023-02-19T05:26:49;98371.25;;;12.77;74.07
15489;BME280;7846;48.830;9.116;2023-02-19T05:29:14;98371.16;;;12.60;73.54
15489;BME280;7846;48.830;9.116;2023-02-19T05:31:40;98376.53;;;12.77;73.88
15489;BME280;7846;48.830;9.116;2023-02-19T05:34:05;98378.16;;;12.70;73.04
15489;BME280;7846;48.830;9.116;2023-02-19T05:36:30;98379.53;;;12.56;73.84
15489;BME280;7846;48.830;9.116;2023-02-19T05:38:57;98383.19;;;12.55;73.50
15489;BME280;7846;48.830;9.116;2023-02-19T05:41:24;98392.97;;;12.37;74.32
15489;BME280;7846;48.830;9.116;2023-02-19T05:43:50;98381.59;;;12.18;73.79
15489;BME280;7846;48.830;9.116;2023-02-19T05:46:18;98391.16;;;12.37;73.93
15489;BME280;7846;48.830;9.116;2023-02-19T05:48:45;98396.16;;;12.48;74.16
15489;BME280;7846;48.830;9.116;2023-02-19T05:51:13;98398.53;;;12.33;73.70
15489;BME280;7846;48.830;9.116;2023-02-19T05:53:39;98395.03;;;12.51;73.32
15489;BME280;7846;48.830;9.116;2023-02-19T05:58:50;98399.88;;;12.38;72.39
15489;BME280;7846;48.830;9.116;2023-02-19T06:01:18;98400.00;;;12.28;73.38
15489;BME280;7846;48.830;9.116;2023-02-19T06:03:45;98404.84;;;12.15;73.25
15489;BME280;7846;48.830;9.116;2023-02-19T06:06:15;98391.56;;;12.50;72.75
15489;BME280;7846;48.830;9.116;2023-02-19T06:08:40;98396.97;;;12.23;72.61
15489;BME280;7846;48.830;9.116;2023-02-19T06:11:07;98401.38;;;12.14;72.07
15489;BME280;7846;48.830;9.116;2023-02-19T06:13:32;98406.09;;;12.28;71.81
15489;BME280;7846;48.830;9.116;2023-02-19T06:15:58;98413.81;;;12.22;71.46
15489;BME280;7846;48.830;9.116;2023-02-19T06:18:23;98418.72;;;11.99;71.81
15489;BME280;7846;48.830;9.116;2023-02-19T06:20:48;98409.50;;;12.21;71.77
15489;BME280;7846;48.830;9.116;2023-02-19T06:23:14;98410.56;;;12.10;71.87
15489;BME280;7846;48.830;9.116;2023-02-19T06:25:40;98418.38;;;12.20;70.95
15489;BME280;7846;48.830;9.116;2023-02-19T06:28:05;98411.16;;;12.22;70.53
15489;BME280;7846;48.830;9.116;2023-02-19T06:30:30;98411.47;;;12.01;70.51
15489;BME280;7846;48.830;9.116;2023-02-19T06:32:57;98409.22;;;12.24;69.50
15489;BME280;7846;48.830;9.116;2023-02-19T06:35:22;98410.13;;;12.15;68.55
15489;BME280;7846;48.830;9.116;2023-02-19T06:37:48;98421.31;;;12.34;67.85
15489;BME280;7846;48.830;9.116;2023-02-19T06:40:14;98422.47;;;12.32;68.44
15489;BME280;7846;48.830;9.116;2023-02-19T06:42:40;98416.59;;;12.20;68.11
15489;BME280;7846;48.830;9.116;2023-02-19T06:45:05;98437.84;;;12.37;67.81
15489;BME280;7846;48.830;9.116;2023-02-19T06:47:32;98443.50;;;12.68;66.68
15489;BME280;7846;48.830;9.116;2023-02-19T06:49:58;98445.44;;;12.57;67.03
15489;BME280;7846;48.830;9.116;2023-02-19T06:52:23;98452.31;;;12.32;67.25
15489;BME280;7846;48.830;9.116;2023-02-19T06:54:49;98458.94;;;12.54;66.71
15489;BME280;7846;48.830;9.116;2023-02-19T06:57:14;98471.69;;;12.41;67.43
15489;BME280;7846;48.830;9.116;2023-02-19T06:59:40;98460.31;;;12.05;68.05
15489;BME280;7846;48.830;9.116;2023-02-19T07:02:09;98462.28;;;12.39;67.31
15489;BME280;7846;48.830;9.116;2023-02-19T07:04:35;98459.28;;;11.98;67.92
15489;BME280;7846;48.830;9.116;2023-02-19T07:07:02;98472.25;;;11.91;68.91
15489;BME280;7846;48.830;9.116;2023-02-19T07:09:27;98461.91;;;12.16;68.71
15489;BME280;7846;48.830;9.116;2023-02-19T07:11:53;98438.69;;;11.83;69.18
15489;BME280;7846;48.830;9.116;2023-02-19T07:14:19;98477.50;;;11.63;69.30
15489;BME280;7846;48.830;9.116;2023-02-19T07:16:46;98454.63;;;11.82;69.11
15489;BME280;7846;48.830;9.116;2023-02-19T07:19:13;98477.66;;;12.61;67.10
15489;BME280;7846;48.830;9.116;2023-02-19T07:21:40;98489.00;;;12.18;67.29
15489;BME280;7846;48.830;9.116;2023-02-19T07:24:07;98470.41;;;12.45;67.15
15489;BME280;7846;48.830;9.116;2023-02-19T07:26:33;98482.78;;;12.45;66.96
15489;BME280;7846;48.830;9.116;2023-02-19T07:28:59;98474.84;;;12.45;66.80
15489;BME280;7846;48.830;9.116;2023-02-19T07:31:27;98488.50;;;12.58;66.41
15489;BME280;7846;48.830;9.116;2023-02-19T07:33:53;98486.53;;;12.60;65.97
15489;BME280;7846;48.830;9.116;2023-02-19T07:36:21;98481.19;;;12.52;66.14
15489;BME280;7846;48.830;9.116;2023-02-19T07:38:55;98477.28;;;12.38;65.24
15489;BME280;7846;48.830;9.116;2023-02-19T07:41:21;98494.09;;;12.55;64.50
15489;BME280;7846;48.830;9.116;2023-02-19T07:43:46;98499.50;;;12.71;63.87
15489;BME280;7846;48.830;9.116;2023-02-19T07:46:12;98505.00;;;13.04;63.81
15489;BME280;7846;48.830;9.116;2023-02-19T07:48:39;98505.16;;;12.76;64.32
15489;BME280;7846;48.830;9.116;2023-02-19T07:51:07;98538.44;;;12.69;64.52
15489;BME280;7846;48.830;9.116;2023-02-19T07:53:33;98506.25;;;12.92;63.56
15489;BME280;7846;48.830;9.116;2023-02-19T07:56:00;98530.13;;;12.82;63.88
15489;BME280;7846;48.830;9.116;2023-02-19T07:58:28;98534.03;;;12.96;63.21
15489;BME280;7846;48.830;9.116;2023-02-19T08:00:53;98537.09;;;13.09;63.17
15489;BME280;7846;48.830;9.116;2023-02-19T08:03:19;98535.63;;;12.89;63.04
15489;BME280;7846;48.830;9.116;2023-02-19T08:05:44;98528.00;;;13.12;62.49
15489;BME280;7846;48.830;9.116;2023-02-19T08:08:12;98526.44;;;13.53;62.59
15489;BME280;7846;48.830;9.116;2023-02-19T08:10:37;98535.66;;;13.23;62.67
15489;BME280;7846;48.830;9.116;2023-02-19T08:13:22;98529.34;;;13.16;62.71
15489;BME280;7846;48.830;9.116;2023-02-19T08:15:49;98537.78;;;13.19;62.55
15489;BME280;7846;48.830;9.116;2023-02-19T08:18:19;98530.03;;;12.92;63.42
15489;BME280;7846;48.830;9.116;2023-02-19T08:20:44;98530.13;;;12.82;63.77
15489;BME280;7846;48.830;9.116;2023-02-19T08:23:11;98531.13;;;13.07;63.35
15489;BME280;7846;48.830;9.116;2023-02-19T08:25:38;98527.00;;;13.30;63.11
15489;BME280;7846;48.830;9.116;2023-02-19T08:28:04;98543.72;;;13.13;63.42
15489;BME280;7846;48.830;9.116;2023-02-19T08:30:31;98549.66;;;13.33;63.22
15489;BME280;7846;48.830;9.116;2023-02-19T08:32:58;98550.50;;;13.16;63.33
15489;BME280;7846;48.830;9.116;2023-02-19T08:35:24;98558.50;;;12.98;63.08
15489;BME280;7846;48.830;9.116;2023-02-19T08:37:50;98553.94;;;12.90;62.81
15489;BME280;7846;48.830;9.116;2023-02-19T08:40:15;98543.59;;;12.97;62.57
15489;BME280;7846;48.830;9.116;2023-02-19T08:42:40;98550.47;;;12.90;63.10
15489;BME280;7846;48.830;9.116;2023-02-19T08:45:07;98564.94;;;12.77;63.48
15489;BME280;7846;48.830;9.116;2023-02-19T08:47:34;98558.06;;;12.84;63.80
15489;BME280;7846;48.830;9.116;2023-02-19T08:50:01;98544.63;;;13.04;64.21
15489;BME280;7846;48.830;9.116;2023-02-19T08:52:29;98542.38;;;12.83;64.07
15489;BME280;7846;48.830;9.116;2023-02-19T08:54:55;98564.41;;;13.18;63.58
15489;BME280;7846;48.830;9.116;2023-02-19T08:57:20;98563.84;;;12.88;63.90
15489;BME280;7846;48.830;9.116;2023-02-19T08:59:46;98558.78;;;12.95;63.86
15489;BME280;7846;48.830;9.116;2023-02-19T09:02:14;98563.44;;;12.57;64.99
15489;BME280;7846;48.830;9.116;2023-02-19T09:04:39;98577.69;;;12.46;65.24
15489;BME280;7846;48.830;9.116;2023-02-19T09:07:05;98572.25;;;12.48;65.48
15489;BME280;7846;48.830;9.116;2023-02-19T09:09:38;98578.13;;;12.77;64.63
15489;BME280;7846;48.830;9.116;2023-02-19T09:12:08;98584.94;;;12.80;64.00
15489;BME280;7846;48.830;9.116;2023-02-19T09:14:34;98587.63;;;12.88;63.53
15489;BME280;7846;48.830;9.116;2023-02-19T09:17:00;98598.34;;;12.87;63.37
15489;BME280;7846;48.830;9.116;2023-02-19T09:19:26;98585.34;;;12.93;63.03
15489;BME280;7846;48.830;9.116;2023-02-19T09:21:53;98591.91;;;13.51;61.50
15489;BME280;7846;48.830;9.116;2023-02-19T09:24:19;98587.97;;;13.11;61.12
15489;BME280;7846;48.830;9.116;2023-02-19T09:26:47;98605.38;;;13.66;60.52
15489;BME280;7846;48.830;9.116;2023-02-19T09:29:13;98609.94;;;13.29;61.04
15489;BME280;7846;48.830;9.116;2023-02-19T09:31:39;98619.91;;;13.36;60.75
15489;BME280;7846;48.830;9.116;2023-02-19T09:34:04;98626.81;;;13.54;59.45
15489;BME280;7846;48.830;9.116;2023-02-19T09:36:30;98616.84;;;13.48;59.83
15489;BME280;7846;48.830;9.116;2023-02-19T09:38:57;98622.44;;;13.45;59.66
15489;BME280;7846;48.830;9.116;2023-02-19T09:41:31;98623.44;;;13.78;58.15
15489;BME280;7846;48.830;9.116;2023-02-19T09:43:59;98613.41;;;13.56;58.20
15489;BME280;7846;48.830;9.116;2023-02-19T09:46:46;98616.78;;;13.66;57.69
15489;BME280;7846;48.830;9.116;2023-02-19T09:51:51;98624.69;;;13.92;56.92
15489;BME280;7846;48.830;9.116;2023-02-19T09:54:24;98618.72;;;13.90;57.05
15489;BME280;7846;48.830;9.116;2023-02-19T09:56:52;98615.59;;;14.45;56.12
15489;BME280;7846;48.830;9.116;2023-02-19T09:59:21;98612.94;;;14.45;55.55
15489;BME280;7846;48.830;9.116;2023-02-19T10:01:54;98619.00;;;14.13;55.32
15489;BME280;7846;48.830;9.116;2023-02-19T10:04:23;98614.06;;;14.35;55.29
15489;BME280;7846;48.830;9.116;2023-02-19T10:06:50;98627.28;;;14.18;54.86
15489;BME280;7846;48.830;9.116;2023-02-19T10:09:22;98606.78;;;14.28;54.51
15489;BME280;7846;48.830;9.116;2023-02-19T10:11:48;98594.56;;;14.44;54.82
15489;BME280;7846;48.830;9.116;2023-02-19T10:17:05;98622.31;;;14.23;55.57
15489;BME280;7846;48.830;9.116;2023-02-19T10:19:34;98609.47;;;14.45;55.38
15489;BME280;7846;48.830;9.116;2023-02-19T10:22:02;98623.31;;;14.22;55.21
15489;BME280;7846;48.830;9.116;2023-02-19T10:24:28;98615.91;;;14.34;55.28
15489;BME280;7846;48.830;9.116;2023-02-19T10:26:54;98612.78;;;14.47;54.88
15489;BME280;7846;48.830;9.116;2023-02-19T10:29:20;98629.50;;;14.39;55.70
15489;BME280;7846;48.830;9.116;2023-02-19T10:31:46;98631.25;;;14.22;56.08
15489;BME280;7846;48.830;9.116;2023-02-19T10:34:21;98633.31;;;14.45;55.58
15489;BME280;7846;48.830;9.116;2023-02-19T10:36:49;98640.72;;;14.33;55.79
15489;BME280;7846;48.830;9.116;2023-02-19T10:41:50;98653.09;;;14.59;55.03
15489;BME280;7846;48.830;9.116;2023-02-19T10:44:24;98654.91;;;14.58;55.53
15489;BME280;7846;48.830;9.116;2023-02-19T10:46:52;98647.69;;;14.34;55.44
15489;BME280;7846;48.830;9.116;2023-02-19T10:49:30;98656.41;;;14.18;55.51
15489;BME280;7846;48.830;9.116;2023-02-19T10:52:00;98667.34;;;14.23;55.82
15489;BME280;7846;48.830;9.116;2023-02-19T10:54:33;98653.47;;;14.29;55.98
15489;BME280;7846;48.830;9.116;2023-02-19T10:59:48;98683.28;;;14.32;55.48
15489;BME280;7846;48.830;9.116;2023-02-19T11:02:16;98662.09;;;14.40;55.63
15489;BME280;7846;48.830;9.116;2023-02-19T11:05:01;98676.56;;;14.11;55.70
15489;BME280;7846;48.830;9.116;2023-02-19T11:07:27;98688.13;;;14.10;55.84
15489;BME280;7846;48.830;9.116;2023-02-19T11:09:53;98681.56;;;13.88;56.26
15489;BME280;7846;48.830;9.116;2023-02-19T11:12:24;98684.53;;;14.19;56.22
15489;BME280;7846;48.830;9.116;2023-02-19T11:14:52;98681.66;;;13.78;56.54
15489;BME280;7846;48.830;9.116;2023-02-19T11:17:22;98685.72;;;13.91;57.00
15489;BME280;7846;48.830;9.116;2023-02-19T11:19:52;98679.31;;;13.75;57.28
15489;BME280;7846;48.830;9.116;2023-02-19T11:22:30;98671.13;;;13.87;57.71
15489;BME280;7846;48.830;9.116;2023-02-19T11:25:01;98651.75;;;13.52;58.06
15489;BME280;7846;48.830;9.116;2023-02-19T11:27:27;98659.38;;;13.55;57.69
15489;BME280;7846;48.830;9.116;2023-02-19T11:29:53;98651.97;;;13.59;57.88
15489;BME280;7846;48.830;9.116;2023-02-19T11:34:46;98639.38;;;13.61;57.64
15489;BME280;7846;48.830;9.116;2023-02-19T11:37:14;98668.47;;;14.13;56.83
15489;BME280;7846;48.830;9.116;2023-02-19T11:39:42;98676.06;;;13.82;57.08
15489;BME280;7846;48.830;9.116;2023-02-19T11:42:42;98680.22;;;14.18;56.86
15489;BME280;7846;48.830;9.116;2023-02-19T11:45:38;98688.88;;;14.28;57.07
15489;BME280;7846;48.830;9.116;2023-02-19T11:50:56;98673.13;;;13.85;57.47
15489;BME280;7846;48.830;9.116;2023-02-19T11:53:33;98681.38;;;14.16;57.35
15489;BME280;7846;48.830;9.116;2023-02-19T12:01:52;98681.47;;;14.40;55.84
15489;BME280;7846;48.830;9.116;2023-02-19T12:04:39;98692.66;;;14.18;55.73
15489;BME280;7846;48.830;9.116;2023-02-19T12:10:17;98696.19;;;14.35;55.78
15489;BME280;7846;48.830;9.116;2023-02-19T12:12:58;98700.78;;;14.59;55.20
15489;BME280;7846;48.830;9.116;2023-02-19T12:15:39;98682.06;;;14.60;55.56
15489;BME280;7846;48.830;9.116;2023-02-19T12:18:30;98667.75;;;14.45;54.28
15489;BME280;7846;48.830;9.116;2023-02-19T12:21:24;98674.34;;;14.33;54.91
15489;BME280;7846;48.830;9.116;2023-02-19T12:24:01;98664.94;;;14.46;54.61
15489;BME280;7846;48.830;9.116;2023-02-19T12:26:54;98672.13;;;14.54;54.99
15489;BME280;7846;48.830;9.116;2023-02-19T12:30:21;98653.34;;;14.47;55.04
15489;BME280;7846;48.830;9.116;2023-02-19T12:40:16;98661.56;;;14.70;56.45
15489;BME280;7846;48.830;9.116;2023-02-19T12:43:16;98662.56;;;14.69;58.74
15489;BME280;7846;48.830;9.116;2023-02-19T12:46:03;98668.25;;;14.48;56.08
15489;BME280;7846;48.830;9.116;2023-02-19T12:48:35;98676.59;;;14.54;55.85
15489;BME280;7846;48.830;9.116;2023-02-19T12:53:47;98643.50;;;14.74;54.31
15489;BME280;7846;48.830;9.116;2023-02-19T12:56:19;98651.59;;;14.64;53.78
15489;BME280;7846;48.830;9.116;2023-02-19T12:59:09;98657.31;;;15.02;53.22
15489;BME280;7846;48.830;9.116;2023-02-19T13:01:46;98649.66;;;15.23;53.00
15489;BME280;7846;48.830;9.116;2023-02-19T13:04:31;98647.00;;;14.83;53.65
15489;BME280;7846;48.830;9.116;2023-02-19T13:09:54;98663.44;;;14.94;53.81
15489;BME280;7846;48.830;9.116;2023-02-19T13:12:33;98656.75;;;14.66;53.28
15489;BME280;7846;48.830;9.116;2023-02-19T13:15:03;98653.72;;;14.61;53.00
15489;BME280;7846;48.830;9.116;2023-02-19T13:17:44;98649.63;;;14.66;53.47
15489;BME280;7846;48.830;9.116;2023-02-19T13:22:46;98650.25;;;14.60;53.51
15489;BME280;7846;48.830;9.116;2023-02-19T13:25:58;98654.81;;;14.42;54.13
15489;BME280;7846;48.830;9.116;2023-02-19T13:28:46;98657.31;;;14.43;54.08
15489;BME280;7846;48.830;9.116;2023-02-19T13:31:37;98666.69;;;14.29;54.67
15489;BME280;7846;48.830;9.116;2023-02-19T13:36:54;98654.84;;;14.08;55.06
15489;BME280;7846;48.830;9.116;2023-02-19T13:39:21;98655.69;;;14.08;55.07
15489;BME280;7846;48.830;9.116;2023-02-19T13:41:57;98659.00;;;14.02;54.79
15489;BME280;7846;48.830;9.116;2023-02-19T13:44:40;98661.63;;;14.44;54.42
15489;BME280;7846;48.830;9.116;2023-02-19T13:47:57;98652.25;;;14.16;55.12
15489;BME280;7846;48.830;9.116;2023-02-19T13:50:29;98652.44;;;14.22;56.01
15489;BME280;7846;48.830;9.116;2023-02-19T13:52:56;98649.00;;;14.38;56.85
15489;BME280;7846;48.830;9.116;2023-02-19T14:00:57;98650.66;;;13.97;58.54
15489;BME280;7846;48.830;9.116;2023-02-19T14:06:08;98641.84;;;13.80;58.26
15489;BME280;7846;48.830;9.116;2023-02-19T14:08:55;98634.00;;;13.70;59.34
15489;BME280;7846;48.830;9.116;2023-02-19T14:22:49;98620.09;;;14.02;56.53
15489;BME280;7846;48.830;9.116;2023-02-19T14:25:34;98632.03;;;14.07;56.39
15489;BME280;7846;48.830;9.116;2023-02-19T14:30:47;98654.22;;;14.56;54.90
15489;BME280;7846;48.830;9.116;2023-02-19T14:33:15;98658.41;;;14.75;54.66
15489;BME280;7846;48.830;9.116;2023-02-19T14:35:44;98655.63;;;14.85;54.50
15489;BME280;7846;48.830;9.116;2023-02-19T14:38:23;98662.59;;;14.35;55.23
15489;BME280;7846;48.830;9.116;2023-02-19T14:40:50;98660.78;;;14.44;54.38
15489;BME280;7846;48.830;9.116;2023-02-19T14:43:18;98657.19;;;14.53;54.62
15489;BME280;7846;48.830;9.116;2023-02-19T14:45:48;98661.78;;;14.43;53.69
15489;BME280;7846;48.830;9.116;2023-02-19T14:48:23;98673.16;;;14.77;53.46
15489;BME280;7846;48.830;9.116;2023-02-19T14:50:55;98683.09;;;14.75;53.47